Time;durP1;ratioP1;P1;durP2;ratioP2;P2;SDS_P1;SDS_P2;PMS_P1;PMS_P2;Temp;Humidity;BMP_temperature;BMP_pressure;BME280_temperature;BME280_humidity;BME280_pressure;Samples;Min_cycle;Max_cycle;Signal;HPM_P1;HPM_P2
2023/05/20 00:00:08;;;;;;;3.38;2.42;;;11.90;99.90;;;;;;5117174;28;20024;-77
2023/05/20 00:02:34;;;;;;;3.40;2.85;;;11.90;99.90;;;;;;5098273;28;20381;-77
2023/05/20 00:04:59;;;;;;;3.75;2.85;;;11.90;99.90;;;;;;5116938;28;20035;-77
2023/05/20 00:07:25;;;;;;;4.45;3.22;;;11.80;99.90;;;;;;5098393;28;20480;-77
2023/05/20 00:09:51;;;;;;;7.25;2.40;;;11.70;99.90;;;;;;5098451;28;20028;-77
2023/05/20 00:12:16;;;;;;;3.25;2.67;;;11.60;99.90;;;;;;5098197;28;20031;-77
2023/05/20 00:14:42;;;;;;;4.32;2.97;;;11.50;99.90;;;;;;5116661;28;20529;-77
2023/05/20 00:17:08;;;;;;;3.33;2.63;;;11.50;99.90;;;;;;5116853;28;20084;-78
2023/05/20 00:19:34;;;;;;;6.95;3.25;;;11.50;99.90;;;;;;5098575;28;20406;-78
2023/05/20 00:22:00;;;;;;;2.75;2.55;;;11.50;99.90;;;;;;5098646;28;20042;-77
2023/05/20 00:24:26;;;;;;;3.08;2.67;;;11.60;99.90;;;;;;5098504;28;20023;-77
2023/05/20 00:26:52;;;;;;;7.50;3.08;;;11.70;99.90;;;;;;5098423;28;20031;-77
2023/05/20 00:29:19;;;;;;;3.95;3.10;;;11.70;99.90;;;;;;5098705;28;20087;-77
2023/05/20 00:31:45;;;;;;;4.28;3.38;;;11.70;99.90;;;;;;5098062;28;20031;-77
2023/05/20 00:34:11;;;;;;;4.80;3.30;;;11.70;99.90;;;;;;5116711;28;20016;-75
2023/05/20 00:36:36;;;;;;;3.40;3.10;;;11.80;99.90;;;;;;5116221;28;20023;-77
2023/05/20 00:39:02;;;;;;;3.50;3.17;;;11.80;99.90;;;;;;5116659;28;20037;-77
2023/05/20 00:41:28;;;;;;;3.88;3.45;;;11.80;99.90;;;;;;5098509;28;20168;-77
2023/05/20 00:43:54;;;;;;;3.80;3.45;;;11.90;99.90;;;;;;5116039;28;20028;-77
2023/05/20 00:46:20;;;;;;;3.90;2.65;;;12.00;99.90;;;;;;5116890;28;20027;-77
2023/05/20 00:48:46;;;;;;;4.40;3.28;;;12.00;99.90;;;;;;5116643;28;20027;-77
2023/05/20 00:51:13;;;;;;;4.50;3.80;;;12.10;99.90;;;;;;5098007;28;20433;-77
2023/05/20 00:53:40;;;;;;;3.45;3.13;;;12.20;99.90;;;;;;5098272;28;20031;-77
2023/05/20 00:56:07;;;;;;;4.18;3.78;;;12.20;99.90;;;;;;5116322;28;20040;-77
2023/05/20 00:58:35;;;;;;;4.68;3.55;;;12.20;99.90;;;;;;5116407;28;20015;-77
2023/05/20 01:01:01;;;;;;;4.78;3.40;;;12.20;99.90;;;;;;5116246;28;20102;-78
2023/05/20 01:03:28;;;;;;;3.78;2.97;;;12.20;99.90;;;;;;5116424;28;20016;-77
2023/05/20 01:05:53;;;;;;;5.05;3.33;;;12.30;99.90;;;;;;5116163;28;20023;-77
2023/05/20 01:08:23;;;;;;;3.50;3.20;;;12.30;99.90;;;;;;5115708;28;20433;-77
2023/05/20 01:11:00;;;;;;;3.60;2.97;;;12.30;99.90;;;;;;5097492;28;20400;-77
2023/05/20 01:13:31;;;;;;;5.70;3.42;;;12.30;99.90;;;;;;5098055;28;20023;-77
2023/05/20 01:15:59;;;;;;;5.38;2.83;;;12.30;99.90;;;;;;5115884;28;20020;-77
2023/05/20 01:18:29;;;;;;;3.58;3.00;;;12.30;99.90;;;;;;5115902;28;20023;-76
2023/05/20 01:21:00;;;;;;;4.68;3.13;;;12.40;99.90;;;;;;5115942;28;20051;-77
2023/05/20 01:23:36;;;;;;;7.47;3.88;;;12.40;99.90;;;;;;5115603;28;20126;-77
2023/05/20 01:26:02;;;;;;;4.40;4.00;;;12.40;99.90;;;;;;5097251;28;20110;-77
2023/05/20 01:28:29;;;;;;;4.00;3.40;;;12.50;99.90;;;;;;5115347;28;20440;-77
2023/05/20 01:30:56;;;;;;;7.10;3.25;;;12.50;99.90;;;;;;5097412;28;20383;-77
2023/05/20 01:33:24;;;;;;;6.82;4.47;;;12.40;99.90;;;;;;5115289;28;20011;-77
2023/05/20 01:35:50;;;;;;;5.53;3.10;;;12.30;99.90;;;;;;5097080;28;20096;-77
2023/05/20 01:38:18;;;;;;;4.35;3.30;;;12.30;99.90;;;;;;5115210;28;20069;-77
2023/05/20 01:40:45;;;;;;;4.25;3.35;;;12.30;99.90;;;;;;5096784;28;20476;-77
2023/05/20 01:43:12;;;;;;;6.65;3.42;;;12.20;99.90;;;;;;5115471;28;20042;-77
2023/05/20 01:45:41;;;;;;;7.80;4.20;;;12.10;99.90;;;;;;5114694;28;20074;-77
2023/05/20 01:48:09;;;;;;;7.57;3.38;;;12.10;99.90;;;;;;5115055;28;20032;-77
2023/05/20 01:50:35;;;;;;;6.28;3.75;;;12.00;99.90;;;;;;5096706;28;20484;-77
2023/05/20 01:53:01;;;;;;;5.72;3.40;;;12.00;99.90;;;;;;5096371;28;20084;-77
2023/05/20 01:55:26;;;;;;;4.93;3.45;;;11.90;99.90;;;;;;5113907;28;20162;-77
2023/05/20 01:57:52;;;;;;;9.85;3.35;;;11.90;99.90;;;;;;5114293;28;20041;-77
2023/05/20 02:00:17;;;;;;;7.22;3.97;;;11.80;99.90;;;;;;5115134;28;20058;-77
2023/05/20 02:02:43;;;;;;;4.95;3.58;;;11.80;99.90;;;;;;5096423;28;20051;-77
2023/05/20 02:05:09;;;;;;;4.75;3.72;;;11.80;99.90;;;;;;5095687;28;20571;-77
2023/05/20 02:07:35;;;;;;;4.72;3.97;;;11.70;99.90;;;;;;5114335;28;20020;-77
2023/05/20 02:10:00;;;;;;;4.18;3.72;;;11.70;99.90;;;;;;5114461;28;20052;-77
2023/05/20 02:12:26;;;;;;;5.18;3.85;;;11.70;99.90;;;;;;5114330;28;20511;-78
2023/05/20 02:14:51;;;;;;;5.43;3.58;;;11.70;99.90;;;;;;5095810;28;20023;-77
2023/05/20 02:17:17;;;;;;;6.35;4.05;;;11.70;99.90;;;;;;5114434;28;20500;-77
2023/05/20 02:19:44;;;;;;;4.07;3.65;;;11.70;99.90;;;;;;5096471;28;20019;-77
2023/05/20 02:22:10;;;;;;;7.28;4.00;;;11.70;99.90;;;;;;5114189;28;20015;-77
2023/05/20 02:24:36;;;;;;;5.60;4.05;;;11.70;99.90;;;;;;5113794;28;20027;-77
2023/05/20 02:27:03;;;;;;;5.70;3.80;;;11.60;99.90;;;;;;5114315;28;20107;-77
2023/05/20 02:29:29;;;;;;;9.05;3.97;;;11.60;99.90;;;;;;5096145;28;20032;-77
2023/05/20 02:31:55;;;;;;;4.25;3.72;;;11.50;99.90;;;;;;5095522;28;20023;-77
2023/05/20 02:34:21;;;;;;;5.30;4.13;;;11.50;99.90;;;;;;5095833;28;20089;-76
2023/05/20 02:36:46;;;;;;;4.28;3.50;;;11.50;99.90;;;;;;5095702;28;20035;-77
2023/05/20 02:39:12;;;;;;;4.53;3.65;;;11.40;99.90;;;;;;5113969;28;20027;-77
2023/05/20 02:41:38;;;;;;;4.38;3.72;;;11.40;99.90;;;;;;5095819;28;20465;-77
2023/05/20 02:44:04;;;;;;;5.85;4.50;;;11.40;99.90;;;;;;5095455;28;20032;-77
2023/05/20 02:46:30;;;;;;;4.15;3.33;;;11.40;99.90;;;;;;5095550;28;20479;-77
2023/05/20 02:48:56;;;;;;;4.93;3.92;;;11.40;99.90;;;;;;5095417;28;20053;-77
2023/05/20 02:51:23;;;;;;;6.65;3.47;;;11.40;99.90;;;;;;5095710;28;20028;-77
2023/05/20 02:53:48;;;;;;;5.25;4.55;;;11.30;99.90;;;;;;5095918;28;20119;-77
2023/05/20 02:56:15;;;;;;;5.07;4.03;;;11.30;99.90;;;;;;5095536;28;20059;-77
2023/05/20 02:58:41;;;;;;;9.38;3.65;;;11.40;99.90;;;;;;5113760;28;20012;-77
2023/05/20 03:01:06;;;;;;;6.07;3.97;;;11.40;99.90;;;;;;5095441;28;20069;-77
2023/05/20 03:03:32;;;;;;;6.82;4.80;;;11.60;99.90;;;;;;5095277;28;20094;-77
2023/05/20 03:05:58;;;;;;;7.35;4.18;;;11.60;99.90;;;;;;5113268;28;20016;-77
2023/05/20 03:08:23;;;;;;;6.05;3.53;;;11.60;99.90;;;;;;5112880;28;20020;-77
2023/05/20 03:10:49;;;;;;;8.90;4.43;;;11.60;99.90;;;;;;5113189;28;20070;-77
2023/05/20 03:13:15;;;;;;;5.05;3.80;;;11.60;99.90;;;;;;5095473;28;20027;-77
2023/05/20 03:15:43;;;;;;;7.50;3.88;;;11.50;99.90;;;;;;5113851;28;20028;-77
2023/05/20 03:18:08;;;;;;;7.30;3.53;;;11.60;99.90;;;;;;5113571;28;20079;-77
2023/05/20 03:20:37;;;;;;;5.45;4.10;;;11.50;99.90;;;;;;5095227;28;20066;-77
2023/05/20 03:23:03;;;;;;;4.13;3.72;;;11.50;99.90;;;;;;5113495;28;20387;-77
2023/05/20 03:25:29;;;;;;;7.07;4.85;;;11.50;99.90;;;;;;5113297;28;20027;-77
2023/05/20 03:27:57;;;;;;;4.80;3.67;;;11.60;99.90;;;;;;5113046;28;20555;-77
2023/05/20 03:30:23;;;;;;;8.00;3.95;;;11.60;99.90;;;;;;5113466;28;20438;-77
2023/05/20 03:32:48;;;;;;;4.20;3.70;;;11.60;99.90;;;;;;5113319;28;20024;-78
2023/05/20 03:35:14;;;;;;;4.63;3.83;;;11.70;99.90;;;;;;5113501;28;20093;-77
2023/05/20 03:37:40;;;;;;;7.85;4.57;;;11.70;99.90;;;;;;5094873;28;20016;-78
2023/05/20 03:40:09;;;;;;;5.70;4.63;;;11.70;99.90;;;;;;5095194;28;20045;-77
2023/05/20 03:42:35;;;;;;;5.32;3.78;;;11.80;99.90;;;;;;5113225;28;20065;-78
2023/05/20 03:45:01;;;;;;;5.72;4.47;;;11.80;99.90;;;;;;5094802;28;20510;-76
2023/05/20 03:47:27;;;;;;;8.15;4.15;;;11.70;99.90;;;;;;5095345;28;20031;-77
2023/05/20 03:49:53;;;;;;;6.85;4.30;;;11.80;99.90;;;;;;5113507;28;20031;-77
2023/05/20 03:52:18;;;;;;;3.85;3.38;;;11.80;99.90;;;;;;5095411;28;20036;-77
2023/05/20 03:54:44;;;;;;;5.00;3.95;;;11.80;99.90;;;;;;5113437;28;20019;-77
2023/05/20 03:57:10;;;;;;;6.05;4.07;;;11.90;99.90;;;;;;5113756;28;20026;-77
2023/05/20 03:59:36;;;;;;;4.85;3.92;;;11.90;99.90;;;;;;5094681;28;20024;-77
2023/05/20 04:02:02;;;;;;;5.78;4.30;;;11.90;99.90;;;;;;5113092;28;20103;-77
2023/05/20 04:04:28;;;;;;;6.13;4.00;;;12.00;99.90;;;;;;5112700;28;20099;-77
2023/05/20 04:06:55;;;;;;;5.05;3.72;;;12.00;99.90;;;;;;5094864;28;20024;-77
2023/05/20 04:09:21;;;;;;;8.52;4.32;;;12.10;99.90;;;;;;5094878;28;20058;-77
2023/05/20 04:11:47;;;;;;;5.57;4.93;;;12.10;99.90;;;;;;5113197;28;20387;-78
2023/05/20 04:14:14;;;;;;;9.35;4.80;;;12.20;99.90;;;;;;5112582;28;20024;-77
2023/05/20 04:16:39;;;;;;;7.07;4.90;;;12.20;99.90;;;;;;5094691;28;20038;-77
2023/05/20 04:19:06;;;;;;;5.18;4.22;;;12.20;99.90;;;;;;5114148;28;20468;-77
2023/05/20 04:21:31;;;;;;;5.35;4.13;;;12.40;99.90;;;;;;5098654;28;20028;-77
2023/05/20 04:23:57;;;;;;;6.15;5.10;;;12.50;99.90;;;;;;5098014;28;20035;-77
2023/05/20 04:26:23;;;;;;;6.28;4.80;;;12.60;99.90;;;;;;5116213;28;20040;-77
2023/05/20 04:28:49;;;;;;;4.80;4.05;;;12.70;99.90;;;;;;5116326;28;20019;-77
2023/05/20 04:31:15;;;;;;;6.35;5.13;;;12.90;99.90;;;;;;5116422;28;20027;-76
2023/05/20 04:33:41;;;;;;;6.40;4.40;;;13.10;99.90;;;;;;5115126;28;20023;-77
2023/05/20 04:36:10;;;;;;;6.32;4.75;;;13.10;99.90;;;;;;5095464;28;20470;-77
2023/05/20 04:38:37;;;;;;;5.82;4.22;;;13.20;99.90;;;;;;5116219;28;20293;-77
2023/05/20 04:41:03;;;;;;;4.45;3.88;;;13.20;99.90;;;;;;5097955;28;20020;-77
2023/05/20 04:43:29;;;;;;;6.53;4.78;;;13.20;99.90;;;;;;5097586;28;20027;-76
2023/05/20 04:45:55;;;;;;;5.13;4.63;;;13.20;99.90;;;;;;5116290;28;20024;-77
2023/05/20 04:48:21;;;;;;;6.13;4.88;;;13.30;99.90;;;;;;5115425;28;20019;-77
2023/05/20 04:50:48;;;;;;;4.75;4.25;;;13.40;99.90;;;;;;5097282;28;20016;-77
2023/05/20 04:53:23;;;;;;;6.50;4.05;;;13.40;99.90;;;;;;5097060;28;20031;-77
2023/05/20 04:55:52;;;;;;;4.40;4.00;;;13.50;99.90;;;;;;5097202;28;20020;-76
2023/05/20 04:58:18;;;;;;;5.55;4.10;;;13.60;99.90;;;;;;5097405;28;20284;-77
2023/05/20 05:00:44;;;;;;;6.35;4.32;;;13.70;99.90;;;;;;5115631;28;20027;-77
2023/05/20 05:03:13;;;;;;;6.03;4.78;;;13.80;99.90;;;;;;5115666;28;20507;-77
2023/05/20 05:05:39;;;;;;;4.68;4.07;;;14.00;99.90;;;;;;5096674;28;20412;-77
2023/05/20 05:08:05;;;;;;;5.78;4.65;;;14.10;99.90;;;;;;5097386;28;20391;-77
2023/05/20 05:10:31;;;;;;;5.85;4.75;;;14.20;99.90;;;;;;5097707;28;20073;-77
2023/05/20 05:12:57;;;;;;;5.35;4.82;;;14.40;99.90;;;;;;5116078;28;20035;-77
2023/05/20 05:15:24;;;;;;;10.35;6.38;;;14.60;99.90;;;;;;5097236;28;20016;-77
2023/05/20 05:17:50;;;;;;;8.77;5.50;;;14.90;99.90;;;;;;5097088;28;20385;-76
2023/05/20 05:20:16;;;;;;;11.93;4.97;;;15.10;99.90;;;;;;5097332;28;20087;-76
2023/05/20 05:22:42;;;;;;;6.28;4.50;;;15.40;99.90;;;;;;5097377;28;20020;-77
2023/05/20 05:25:08;;;;;;;6.13;3.65;;;15.50;99.90;;;;;;5097012;28;20031;-76
2023/05/20 05:27:34;;;;;;;7.82;4.07;;;15.70;99.90;;;;;;5115449;28;20035;-77
2023/05/20 05:30:01;;;;;;;4.80;4.32;;;15.90;99.90;;;;;;5097601;28;20034;-76
2023/05/20 05:32:27;;;;;;;4.57;3.75;;;16.10;99.90;;;;;;5097222;28;20032;-77
2023/05/20 05:34:53;;;;;;;4.70;3.65;;;16.30;99.90;;;;;;5115852;28;20031;-76
2023/05/20 05:37:18;;;;;;;3.83;3.42;;;16.60;99.90;;;;;;5115584;28;20018;-76
2023/05/20 05:39:44;;;;;;;3.88;3.17;;;16.80;99.90;;;;;;5115281;28;20024;-77
2023/05/20 05:42:10;;;;;;;4.85;3.17;;;16.90;99.90;;;;;;5114712;28;20020;-76
2023/05/20 05:44:36;;;;;;;3.35;2.95;;;17.10;99.90;;;;;;5095550;28;20026;-76
2023/05/20 05:47:01;;;;;;;4.43;2.88;;;17.20;99.90;;;;;;5114132;28;20050;-76
2023/05/20 05:49:27;;;;;;;4.57;2.95;;;17.30;99.90;;;;;;5115447;28;20396;-77
2023/05/20 05:51:53;;;;;;;3.47;2.65;;;17.40;99.90;;;;;;5095280;28;20024;-76
2023/05/20 05:54:21;;;;;;;3.15;2.83;;;17.40;99.90;;;;;;5094849;28;20062;-76
2023/05/20 05:56:47;;;;;;;2.85;2.65;;;17.50;99.90;;;;;;5095536;28;20114;-77
2023/05/20 05:59:12;;;;;;;2.28;2.08;;;17.60;99.90;;;;;;5096808;28;20051;-77
2023/05/20 06:01:38;;;;;;;4.07;2.95;;;17.70;99.90;;;;;;5115216;28;20452;-77
2023/05/20 06:04:03;;;;;;;6.97;3.25;;;17.80;99.90;;;;;;5096785;28;20030;-76
2023/05/20 06:06:30;;;;;;;3.10;2.80;;;18.00;99.90;;;;;;5115200;28;20024;-75
2023/05/20 06:08:56;;;;;;;2.63;2.42;;;18.30;99.90;;;;;;5097250;28;20023;-76
2023/05/20 06:11:23;;;;;;;2.63;2.42;;;18.40;99.90;;;;;;5114719;28;20028;-76
2023/05/20 06:13:49;;;;;;;3.40;2.33;;;18.50;99.90;;;;;;5096206;28;20462;-77
2023/05/20 06:16:15;;;;;;;2.25;2.05;;;18.50;99.90;;;;;;5114718;28;20382;-77
2023/05/20 06:18:41;;;;;;;3.75;2.47;;;18.50;99.90;;;;;;5114552;28;20046;-77
2023/05/20 06:21:07;;;;;;;2.85;1.98;;;18.50;99.90;;;;;;5114703;28;20483;-77
2023/05/20 06:23:33;;;;;;;2.95;2.40;;;18.50;99.90;;;;;;5115153;28;20031;-77
2023/05/20 06:25:59;;;;;;;5.72;2.70;;;18.40;99.90;;;;;;5095985;28;20073;-76
2023/05/20 06:28:26;;;;;;;2.10;1.90;;;18.50;99.90;;;;;;5112619;28;20624;-77
2023/05/20 06:30:53;;;;;;;2.28;2.08;;;18.50;99.90;;;;;;5095623;28;20468;-77
2023/05/20 06:33:20;;;;;;;4.78;2.38;;;18.50;99.90;;;;;;5113622;28;20031;-77
2023/05/20 06:35:46;;;;;;;3.85;2.08;;;18.60;99.90;;;;;;5113251;28;20019;-77
2023/05/20 06:38:12;;;;;;;2.05;1.85;;;18.60;99.90;;;;;;5112311;28;20559;-77
2023/05/20 06:40:37;;;;;;;1.90;1.77;;;18.70;99.90;;;;;;5114912;28;20051;-78
2023/05/20 06:43:03;;;;;;;2.30;2.10;;;18.80;99.90;;;;;;5094271;28;20107;-76
2023/05/20 06:45:28;;;;;;;2.10;1.90;;;19.00;99.90;;;;;;5095181;28;20024;-77
2023/05/20 06:47:54;;;;;;;2.58;2.38;;;19.10;99.90;;;;;;5112065;28;20020;-77
2023/05/20 06:50:20;;;;;;;12.68;2.65;;;19.10;99.90;;;;;;5112502;28;20019;-76
2023/05/20 06:52:45;;;;;;;7.00;2.50;;;19.30;99.90;;;;;;5095099;28;20511;-77
2023/05/20 06:55:11;;;;;;;2.17;1.95;;;19.20;99.90;;;;;;5094837;28;20114;-77
2023/05/20 06:57:37;;;;;;;5.38;2.63;;;19.20;99.90;;;;;;5094211;28;20115;-76
2023/05/20 07:00:04;;;;;;;3.45;1.98;;;19.30;99.90;;;;;;5112319;28;20435;-76
2023/05/20 07:02:32;;;;;;;2.85;2.28;;;19.40;99.90;;;;;;5112403;28;20030;-76
2023/05/20 07:04:57;;;;;;;2.65;2.17;;;19.60;99.90;;;;;;5112129;28;20034;-76
2023/05/20 07:07:23;;;;;;;3.60;2.10;;;19.80;99.90;;;;;;5090730;28;20028;-76
2023/05/20 07:09:49;;;;;;;2.75;2.55;;;19.90;99.90;;;;;;5095929;28;20030;-78
2023/05/20 07:12:14;;;;;;;2.67;2.10;;;20.00;99.90;;;;;;5090913;28;20046;-77
2023/05/20 07:14:41;;;;;;;3.35;2.50;;;19.90;99.90;;;;;;5090358;28;20016;-76
2023/05/20 07:17:06;;;;;;;2.15;1.88;;;20.20;99.90;;;;;;5093661;28;20097;-77
2023/05/20 07:19:32;;;;;;;3.13;2.35;;;20.40;99.90;;;;;;5094385;28;20047;-75
2023/05/20 07:21:59;;;;;;;2.95;2.63;;;20.30;99.90;;;;;;5094529;28;20028;-76
2023/05/20 07:24:25;;;;;;;2.65;2.22;;;20.30;99.90;;;;;;5093402;28;20032;-75
2023/05/20 07:26:50;;;;;;;2.47;2.10;;;20.30;99.90;;;;;;5092962;28;20362;-75
2023/05/20 07:29:16;;;;;;;5.20;2.60;;;20.20;99.90;;;;;;5094326;28;20027;-77
2023/05/20 07:31:42;;;;;;;3.58;2.55;;;20.30;99.90;;;;;;5093589;28;20148;-76
2023/05/20 07:34:08;;;;;;;3.67;2.55;;;20.10;99.90;;;;;;5092967;28;20097;-75
2023/05/20 07:36:33;;;;;;;3.28;2.60;;;20.10;99.90;;;;;;5090791;28;20016;-76
2023/05/20 07:38:59;;;;;;;3.22;2.50;;;20.20;99.90;;;;;;5092354;28;20535;-75
2023/05/20 07:41:25;;;;;;;2.20;2.00;;;20.20;99.90;;;;;;5091273;28;20024;-75
2023/05/20 07:43:51;;;;;;;3.70;2.88;;;20.20;99.90;;;;;;5091301;28;20031;-76
2023/05/20 07:46:16;;;;;;;3.50;2.58;;;20.40;99.90;;;;;;5092743;28;20032;-76
2023/05/20 07:48:43;;;;;;;5.20;2.92;;;20.40;99.90;;;;;;5092738;28;20097;-76
2023/05/20 07:51:10;;;;;;;3.10;2.58;;;20.40;99.90;;;;;;5094519;28;20031;-76
2023/05/20 07:53:36;;;;;;;3.42;2.88;;;20.60;99.90;;;;;;5093354;28;20020;-76
2023/05/20 07:56:02;;;;;;;2.83;2.53;;;21.10;99.90;;;;;;5096807;28;20066;-75
2023/05/20 07:58:28;;;;;;;3.85;2.75;;;21.50;99.90;;;;;;5097205;28;20115;-76
2023/05/20 08:00:54;;;;;;;4.55;2.95;;;21.50;99.90;;;;;;5095489;28;20042;-75
2023/05/20 08:03:21;;;;;;;3.50;2.83;;;21.50;99.90;;;;;;5097230;28;20123;-77
2023/05/20 08:05:46;;;;;;;4.85;3.45;;;21.50;99.90;;;;;;5096913;28;20394;-77
2023/05/20 08:08:12;;;;;;;5.32;3.28;;;21.60;99.90;;;;;;5096315;28;20103;-75
2023/05/20 08:10:38;;;;;;;4.35;3.20;;;21.40;99.90;;;;;;5094636;28;20028;-76
2023/05/20 08:13:03;;;;;;;4.68;2.67;;;21.30;99.90;;;;;;5094159;28;20032;-75
2023/05/20 08:15:29;;;;;;;3.38;2.50;;;21.20;99.90;;;;;;5094100;28;20114;-75
2023/05/20 08:17:55;;;;;;;6.72;4.03;;;21.10;99.90;;;;;;5096446;28;20103;-76
2023/05/20 08:20:20;;;;;;;4.63;2.90;;;21.10;99.90;;;;;;5097517;28;20113;-75
2023/05/20 08:22:46;;;;;;;4.80;3.78;;;21.50;99.90;;;;;;5095779;28;20070;-76
2023/05/20 08:25:12;;;;;;;4.10;3.05;;;21.90;99.90;;;;;;5095051;28;20028;-74
2023/05/20 08:27:37;;;;;;;4.68;3.20;;;22.20;99.50;;;;;;5096193;28;20024;-76
2023/05/20 08:30:05;;;;;;;4.78;3.80;;;22.40;98.70;;;;;;5096766;28;20106;-75
2023/05/20 08:32:31;;;;;;;6.63;4.75;;;22.50;98.40;;;;;;5097034;28;20107;-76
2023/05/20 08:35:00;;;;;;;3.92;3.13;;;22.60;98.40;;;;;;5096395;28;20055;-76
2023/05/20 08:37:26;;;;;;;6.35;3.88;;;22.60;97.90;;;;;;5096922;28;20387;-77
2023/05/20 08:39:51;;;;;;;4.65;3.55;;;22.60;98.20;;;;;;5096812;28;20021;-77
2023/05/20 08:42:23;;;;;;;3.10;2.80;;;22.70;96.20;;;;;;5094634;28;20032;-77
2023/05/20 08:44:51;;;;;;;5.18;3.25;;;22.80;95.90;;;;;;5093699;28;20043;-76
2023/05/20 08:47:21;;;;;;;3.30;2.67;;;22.50;95.50;;;;;;5094254;28;20039;-77
2023/05/20 08:49:48;;;;;;;3.80;3.25;;;22.40;96.70;;;;;;5095254;28;20031;-77
2023/05/20 08:52:16;;;;;;;6.45;3.08;;;22.40;98.30;;;;;;5096508;28;20054;-75
2023/05/20 08:54:49;;;;;;;7.07;3.60;;;22.30;96.70;;;;;;5097129;28;20024;-76
2023/05/20 08:57:15;;;;;;;3.58;3.03;;;22.40;96.80;;;;;;5097642;28;20103;-77
2023/05/20 08:59:45;;;;;;;5.38;3.47;;;22.60;97.10;;;;;;5096456;28;20052;-76
2023/05/20 09:02:11;;;;;;;3.92;3.15;;;22.70;93.70;;;;;;5098171;28;20028;-76
2023/05/20 09:04:37;;;;;;;7.13;3.50;;;22.70;93.30;;;;;;5096432;28;20032;-76
2023/05/20 09:07:04;;;;;;;6.70;3.45;;;22.80;92.80;;;;;;5097105;28;20031;-77
2023/05/20 09:09:32;;;;;;;3.60;2.88;;;22.80;93.80;;;;;;5098311;28;20024;-75
2023/05/20 09:12:02;;;;;;;4.35;3.22;;;22.70;93.00;;;;;;5097142;28;20054;-77
2023/05/20 09:14:29;;;;;;;7.28;2.85;;;22.80;92.90;;;;;;5097818;28;20020;-75
2023/05/20 09:16:54;;;;;;;3.45;3.15;;;22.80;92.50;;;;;;5096783;28;20134;-77
2023/05/20 09:19:24;;;;;;;3.80;2.95;;;23.00;91.70;;;;;;5096283;28;20020;-77
2023/05/20 09:21:57;;;;;;;4.93;2.90;;;23.10;92.80;;;;;;5097170;28;20042;-76
2023/05/20 09:24:24;;;;;;;3.22;2.83;;;23.10;93.30;;;;;;5096399;28;20038;-78
2023/05/20 09:26:50;;;;;;;5.15;3.30;;;23.20;93.00;;;;;;5097616;28;20032;-77
2023/05/20 09:29:15;;;;;;;6.60;3.63;;;23.20;91.10;;;;;;5098285;28;20070;-76
2023/05/20 09:31:42;;;;;;;6.53;3.58;;;23.20;91.20;;;;;;5095408;28;20031;-77
2023/05/20 09:34:08;;;;;;;4.38;2.67;;;23.30;91.20;;;;;;5095198;28;20020;-76
2023/05/20 09:36:34;;;;;;;3.75;2.97;;;23.50;91.60;;;;;;5094081;28;20024;-76
2023/05/20 09:39:03;;;;;;;4.07;3.40;;;23.60;91.00;;;;;;5094605;28;20102;-76
2023/05/20 09:41:37;;;;;;;9.07;3.38;;;23.60;90.10;;;;;;5096969;28;20070;-78
2023/05/20 09:44:05;;;;;;;4.32;3.13;;;23.50;90.50;;;;;;5097543;28;20038;-78
2023/05/20 09:46:33;;;;;;;3.65;3.10;;;23.40;90.00;;;;;;5098316;28;20074;-78
2023/05/20 09:48:59;;;;;;;3.22;2.70;;;23.30;90.20;;;;;;5097160;28;20059;-77
2023/05/20 09:51:26;;;;;;;3.55;3.10;;;23.10;91.60;;;;;;5098479;28;20024;-78
2023/05/20 09:53:53;;;;;;;7.57;4.32;;;23.10;91.90;;;;;;5098452;28;20023;-78
2023/05/20 09:56:20;;;;;;;6.47;3.55;;;23.00;92.10;;;;;;5097575;28;20024;-77
2023/05/20 09:58:48;;;;;;;3.67;2.95;;;23.10;92.30;;;;;;5095106;28;20103;-77
2023/05/20 10:01:14;;;;;;;6.75;3.15;;;23.20;92.30;;;;;;5097456;28;20023;-78
2023/05/20 10:03:40;;;;;;;4.80;3.00;;;23.30;91.90;;;;;;5096756;28;20028;-78
2023/05/20 10:06:19;;;;;;;4.03;3.22;;;23.20;91.30;;;;;;5096736;28;20028;-77
2023/05/20 10:09:06;;;;;;;4.45;3.15;;;23.20;91.80;;;;;;5095242;28;20012;-77
2023/05/20 10:11:39;;;;;;;3.38;3.13;;;23.20;92.00;;;;;;5095462;28;20032;-78
2023/05/20 10:14:26;;;;;;;5.55;3.60;;;23.50;92.40;;;;;;5092447;28;20158;-77
2023/05/20 10:17:08;;;;;;;4.43;2.95;;;23.90;91.40;;;;;;5092879;28;20027;-77
2023/05/20 10:19:35;;;;;;;4.28;3.33;;;24.20;90.80;;;;;;5093872;28;20020;-77
2023/05/20 10:22:08;;;;;;;3.70;3.28;;;24.30;89.50;;;;;;5091894;28;20077;-77
2023/05/20 10:24:45;;;;;;;3.53;2.90;;;24.30;90.00;;;;;;5096796;28;20042;-77
2023/05/20 10:27:15;;;;;;;4.45;3.92;;;24.20;88.80;;;;;;5096274;28;20024;-77
2023/05/20 10:29:53;;;;;;;7.55;3.67;;;23.70;88.10;;;;;;5095106;28;20016;-77
2023/05/20 10:32:30;;;;;;;6.55;3.70;;;23.60;89.80;;;;;;5094360;28;20056;-76
2023/05/20 10:35:03;;;;;;;4.45;3.42;;;23.40;90.30;;;;;;5093870;28;20089;-76
2023/05/20 10:37:31;;;;;;;3.65;3.17;;;23.40;88.90;;;;;;5095130;28;20475;-76
2023/05/20 10:40:07;;;;;;;6.65;3.55;;;23.50;90.90;;;;;;5094940;28;20023;-78
2023/05/20 10:42:33;;;;;;;4.07;3.28;;;23.40;91.30;;;;;;5094239;28;20381;-78
2023/05/20 10:44:59;;;;;;;4.75;3.42;;;23.50;90.60;;;;;;5093603;28;20034;-77
2023/05/20 10:47:24;;;;;;;4.75;3.15;;;23.60;91.30;;;;;;5095392;28;20052;-76
2023/05/20 10:49:50;;;;;;;3.90;3.40;;;23.60;90.60;;;;;;5094551;28;20027;-77
2023/05/20 10:52:16;;;;;;;4.07;3.67;;;23.80;90.40;;;;;;5095956;28;20032;-76
2023/05/20 10:54:47;;;;;;;6.65;3.50;;;23.70;90.40;;;;;;5094329;28;20027;-76
2023/05/20 10:57:13;;;;;;;5.93;3.20;;;23.40;89.40;;;;;;5095787;28;20042;-76
2023/05/20 10:59:40;;;;;;;4.00;3.60;;;23.60;89.00;;;;;;5095662;28;20480;-77
2023/05/20 11:02:08;;;;;;;4.30;3.50;;;23.90;88.70;;;;;;5095535;28;20062;-77
2023/05/20 11:04:34;;;;;;;3.70;3.40;;;24.10;88.40;;;;;;5095318;28;20024;-77
2023/05/20 11:06:59;;;;;;;5.28;3.20;;;24.10;87.20;;;;;;5095430;28;20104;-77
2023/05/20 11:09:25;;;;;;;6.78;3.40;;;23.90;86.00;;;;;;5093328;28;20032;-76
2023/05/20 11:11:52;;;;;;;3.80;3.05;;;23.80;82.30;;;;;;5092740;28;20035;-76
2023/05/20 11:14:18;;;;;;;4.47;3.30;;;23.90;82.40;;;;;;5093534;28;20032;-76
2023/05/20 11:16:45;;;;;;;4.55;3.22;;;24.00;82.90;;;;;;5094228;28;20012;-77
2023/05/20 11:19:17;;;;;;;3.13;2.83;;;24.10;83.50;;;;;;5092735;28;20126;-76
2023/05/20 11:21:44;;;;;;;3.30;3.00;;;23.90;82.10;;;;;;5096000;28;20126;-75
2023/05/20 11:24:10;;;;;;;4.53;2.72;;;23.90;83.80;;;;;;5095459;28;20028;-77
2023/05/20 11:26:36;;;;;;;9.45;3.58;;;24.00;82.20;;;;;;5094770;28;20086;-77
2023/05/20 11:29:02;;;;;;;4.85;3.08;;;23.90;81.50;;;;;;5095752;28;20439;-76
2023/05/20 11:31:28;;;;;;;3.10;2.80;;;23.80;82.70;;;;;;5098050;28;20027;-77
2023/05/20 11:33:53;;;;;;;3.60;3.00;;;23.60;83.20;;;;;;5098269;28;20027;-76
2023/05/20 11:36:21;;;;;;;2.60;2.40;;;23.60;84.00;;;;;;5100496;28;20099;-77
2023/05/20 11:38:46;;;;;;;6.80;3.05;;;23.60;84.90;;;;;;5096719;28;20028;-76
2023/05/20 11:41:12;;;;;;;4.20;3.40;;;23.50;85.60;;;;;;5097905;28;20028;-78
2023/05/20 11:43:38;;;;;;;3.88;3.22;;;23.20;86.20;;;;;;5098466;28;20020;-77
2023/05/20 11:46:04;;;;;;;5.43;3.90;;;23.00;86.70;;;;;;5098749;28;20059;-76
2023/05/20 11:48:30;;;;;;;4.22;3.55;;;23.00;87.50;;;;;;5098459;28;20046;-76
2023/05/20 11:50:56;;;;;;;5.30;3.30;;;23.10;86.50;;;;;;5098416;28;20392;-76
2023/05/20 11:53:23;;;;;;;3.78;3.10;;;23.20;86.70;;;;;;5098295;28;20028;-75
2023/05/20 11:55:49;;;;;;;5.38;3.17;;;23.20;86.30;;;;;;5097600;28;20020;-77
2023/05/20 11:58:17;;;;;;;3.85;3.22;;;23.50;87.50;;;;;;5098522;28;20065;-78
2023/05/20 12:00:43;;;;;;;3.95;2.88;;;23.70;87.70;;;;;;5096508;28;20088;-76
2023/05/20 12:03:10;;;;;;;4.00;3.03;;;23.70;87.00;;;;;;5097069;28;20059;-77
2023/05/20 12:05:35;;;;;;;6.18;3.85;;;23.70;86.80;;;;;;5097678;28;20023;-76
2023/05/20 12:08:01;;;;;;;4.28;3.40;;;23.70;86.40;;;;;;5096296;28;20091;-76
2023/05/20 12:10:27;;;;;;;4.97;3.05;;;23.90;85.30;;;;;;5098943;28;20111;-77
2023/05/20 12:12:52;;;;;;;4.40;3.67;;;24.00;83.40;;;;;;5097396;28;20111;-76
2023/05/20 12:15:18;;;;;;;3.90;3.40;;;23.70;84.40;;;;;;5097462;28;20028;-77
2023/05/20 12:17:49;;;;;;;4.25;3.60;;;23.80;84.90;;;;;;5096435;28;20077;-75
2023/05/20 12:20:17;;;;;;;5.03;3.60;;;24.00;85.30;;;;;;5096076;28;20435;-75
2023/05/20 12:22:44;;;;;;;4.25;3.45;;;24.20;85.30;;;;;;5099861;28;20103;-77
2023/05/20 12:25:14;;;;;;;3.30;2.72;;;24.30;82.90;;;;;;5098915;28;20055;-78
2023/05/20 12:27:40;;;;;;;4.90;3.88;;;24.20;82.30;;;;;;5099408;28;20028;-78
2023/05/20 12:30:08;;;;;;;4.53;2.88;;;24.10;82.00;;;;;;5099303;28;20020;-78
2023/05/20 12:32:35;;;;;;;3.92;3.30;;;24.10;81.40;;;;;;5099613;28;20060;-76
2023/05/20 12:35:01;;;;;;;4.60;3.65;;;24.20;85.00;;;;;;5098697;28;20100;-76
2023/05/20 12:37:27;;;;;;;4.55;2.95;;;24.60;85.00;;;;;;5100014;28;20482;-79
2023/05/20 12:39:52;;;;;;;3.33;3.03;;;24.50;83.00;;;;;;5102236;28;20048;-78
2023/05/20 12:42:18;;;;;;;4.68;3.03;;;24.30;80.90;;;;;;5104707;28;20024;-77